sensor_id;sensor_type;location;lat;lon;timestamp;pressure;altitude;pressure_sealevel;temperature;humidity
45129;BME280;35512;56.312;101.728;2022-12-18T00:00:24;96966.16;;;-19.35;74.42
45129;BME280;35512;56.312;101.728;2022-12-18T00:02:55;96966.81;;;-19.33;74.21
45129;BME280;35512;56.312;101.728;2022-12-18T00:05:24;96962.31;;;-19.31;74.50
45129;BME280;35512;56.312;101.728;2022-12-18T00:07:53;96957.00;;;-19.29;74.63
45129;BME280;35512;56.312;101.728;2022-12-18T00:10:21;96953.97;;;-19.25;74.79
45129;BME280;35512;56.312;101.728;2022-12-18T00:12:50;96954.59;;;-19.23;74.58
45129;BME280;35512;56.312;101.728;2022-12-18T00:15:19;96948.66;;;-19.23;74.49
45129;BME280;35512;56.312;101.728;2022-12-18T00:17:48;96956.84;;;-19.19;74.82
45129;BME280;35512;56.312;101.728;2022-12-18T00:20:17;96948.66;;;-19.15;74.82
45129;BME280;35512;56.312;101.728;2022-12-18T00:22:53;96950.88;;;-19.12;74.91
45129;BME280;35512;56.312;101.728;2022-12-18T00:25:22;96951.22;;;-19.07;74.73
45129;BME280;35512;56.312;101.728;2022-12-18T00:27:51;96946.06;;;-19.07;74.74
45129;BME280;35512;56.312;101.728;2022-12-18T00:30:19;96943.50;;;-19.07;74.66
45129;BME280;35512;56.312;101.728;2022-12-18T00:32:48;96940.75;;;-19.05;74.52
45129;BME280;35512;56.312;101.728;2022-12-18T00:35:17;96933.81;;;-19.04;74.66
45129;BME280;35512;56.312;101.728;2022-12-18T00:37:48;96949.09;;;-19.03;74.92
45129;BME280;35512;56.312;101.728;2022-12-18T00:40:17;96934.81;;;-19.06;74.62
45129;BME280;35512;56.312;101.728;2022-12-18T00:42:46;96935.59;;;-19.05;74.71
45129;BME280;35512;56.312;101.728;2022-12-18T00:45:29;96934.94;;;-19.07;74.71
45129;BME280;35512;56.312;101.728;2022-12-18T00:47:59;96943.66;;;-19.08;74.46
45129;BME280;35512;56.312;101.728;2022-12-18T00:50:28;96942.84;;;-19.17;74.07
45129;BME280;35512;56.312;101.728;2022-12-18T00:52:56;96936.75;;;-19.24;74.39
45129;BME280;35512;56.312;101.728;2022-12-18T00:55:25;96938.53;;;-19.25;74.52
45129;BME280;35512;56.312;101.728;2022-12-18T00:57:54;96940.59;;;-19.20;74.47
45129;BME280;35512;56.312;101.728;2022-12-18T01:00:24;96949.28;;;-19.21;74.71
45129;BME280;35512;56.312;101.728;2022-12-18T01:02:53;96947.81;;;-19.24;74.45
45129;BME280;35512;56.312;101.728;2022-12-18T01:05:22;96940.44;;;-19.27;74.46
45129;BME280;35512;56.312;101.728;2022-12-18T01:07:51;96942.06;;;-19.26;74.47
45129;BME280;35512;56.312;101.728;2022-12-18T01:10:20;96940.28;;;-19.25;74.57
45129;BME280;35512;56.312;101.728;2022-12-18T01:12:49;96938.66;;;-19.26;74.45
45129;BME280;35512;56.312;101.728;2022-12-18T01:15:20;96946.25;;;-19.25;74.60
45129;BME280;35512;56.312;101.728;2022-12-18T01:17:52;96940.28;;;-19.25;74.58
45129;BME280;35512;56.312;101.728;2022-12-18T01:20:21;96936.91;;;-19.26;74.61
45129;BME280;35512;56.312;101.728;2022-12-18T01:22:50;96942.38;;;-19.20;74.61
45129;BME280;35512;56.312;101.728;2022-12-18T01:25:19;96934.16;;;-19.16;74.60
45129;BME280;35512;56.312;101.728;2022-12-18T01:27:50;96934.94;;;-19.15;74.31
45129;BME280;35512;56.312;101.728;2022-12-18T01:30:19;96932.69;;;-19.10;74.44
45129;BME280;35512;56.312;101.728;2022-12-18T01:32:48;96933.66;;;-19.11;74.58
45129;BME280;35512;56.312;101.728;2022-12-18T01:35:17;96926.94;;;-19.12;74.37
45129;BME280;35512;56.312;101.728;2022-12-18T01:37:46;96933.66;;;-19.11;74.43
45129;BME280;35512;56.312;101.728;2022-12-18T01:40:15;96937.69;;;-19.09;74.44
45129;BME280;35512;56.312;101.728;2022-12-18T01:42:44;96939.13;;;-19.06;74.24
45129;BME280;35512;56.312;101.728;2022-12-18T01:48:05;96935.09;;;-19.00;74.41
45129;BME280;35512;56.312;101.728;2022-12-18T01:50:38;96934.13;;;-18.99;74.44
45129;BME280;35512;56.312;101.728;2022-12-18T01:53:13;96936.72;;;-18.99;74.52
45129;BME280;35512;56.312;101.728;2022-12-18T01:55:47;96930.09;;;-18.94;74.50
45129;BME280;35512;56.312;101.728;2022-12-18T01:58:18;96928.31;;;-18.85;74.53
45129;BME280;35512;56.312;101.728;2022-12-18T02:00:49;96936.97;;;-18.78;74.37
45129;BME280;35512;56.312;101.728;2022-12-18T02:03:20;96921.66;;;-18.71;74.57
45129;BME280;35512;56.312;101.728;2022-12-18T02:11:57;96926.47;;;-18.60;74.60
45129;BME280;35512;56.312;101.728;2022-12-18T02:17:18;96926.66;;;-18.22;74.77
45129;BME280;35512;56.312;101.728;2022-12-18T02:20:16;96916.84;;;-17.95;75.07
45129;BME280;35512;56.312;101.728;2022-12-18T02:28:58;96909.50;;;-16.39;76.47
45129;BME280;35512;56.312;101.728;2022-12-18T02:31:36;96904.09;;;-15.27;77.75
45129;BME280;35512;56.312;101.728;2022-12-18T02:34:08;96903.16;;;-14.21;78.23
45129;BME280;35512;56.312;101.728;2022-12-18T02:36:40;96900.00;;;-13.55;77.15
45129;BME280;35512;56.312;101.728;2022-12-18T02:39:12;96896.00;;;-13.37;75.87
45129;BME280;35512;56.312;101.728;2022-12-18T02:41:53;96901.38;;;-13.32;75.87
45129;BME280;35512;56.312;101.728;2022-12-18T02:44:24;96899.59;;;-13.45;74.83
45129;BME280;35512;56.312;101.728;2022-12-18T02:46:54;96898.72;;;-13.79;74.46
45129;BME280;35512;56.312;101.728;2022-12-18T02:58:22;96878.16;;;-13.74;74.96
45129;BME280;35512;56.312;101.728;2022-12-18T03:01:12;96865.91;;;-13.94;75.44
45129;BME280;35512;56.312;101.728;2022-12-18T03:03:59;96872.84;;;-14.14;75.49
45129;BME280;35512;56.312;101.728;2022-12-18T03:06:38;96875.97;;;-14.32;75.75
45129;BME280;35512;56.312;101.728;2022-12-18T03:09:14;96875.22;;;-14.61;75.17
45129;BME280;35512;56.312;101.728;2022-12-18T03:11:54;96874.34;;;-14.82;75.52
45129;BME280;35512;56.312;101.728;2022-12-18T03:14:44;96873.44;;;-14.96;75.44
45129;BME280;35512;56.312;101.728;2022-12-18T03:17:19;96873.16;;;-15.07;75.95
45129;BME280;35512;56.312;101.728;2022-12-18T03:19:52;96867.13;;;-15.15;75.62
45129;BME280;35512;56.312;101.728;2022-12-18T03:22:24;96869.66;;;-15.21;75.77
45129;BME280;35512;56.312;101.728;2022-12-18T03:24:56;96861.88;;;-15.21;75.94
45129;BME280;35512;56.312;101.728;2022-12-18T03:27:27;96861.94;;;-15.15;76.28
45129;BME280;35512;56.312;101.728;2022-12-18T03:30:08;96860.75;;;-15.12;75.88
45129;BME280;35512;56.312;101.728;2022-12-18T03:35:49;96860.41;;;-15.09;76.31
45129;BME280;35512;56.312;101.728;2022-12-18T03:38:19;96857.84;;;-15.02;75.97
45129;BME280;35512;56.312;101.728;2022-12-18T03:49:19;96841.19;;;-14.86;76.41
45129;BME280;35512;56.312;101.728;2022-12-18T03:54:55;96835.31;;;-14.73;75.84
45129;BME280;35512;56.312;101.728;2022-12-18T03:57:28;96822.53;;;-14.68;76.05
45129;BME280;35512;56.312;101.728;2022-12-18T04:00:18;96819.59;;;-14.58;76.36
45129;BME280;35512;56.312;101.728;2022-12-18T04:03:04;96820.22;;;-14.50;76.48
45129;BME280;35512;56.312;101.728;2022-12-18T04:05:42;96817.63;;;-14.50;75.90
45129;BME280;35512;56.312;101.728;2022-12-18T04:08:14;96819.59;;;-14.52;76.05
45129;BME280;35512;56.312;101.728;2022-12-18T04:10:52;96816.78;;;-14.57;75.58
45129;BME280;35512;56.312;101.728;2022-12-18T04:13:39;96814.25;;;-14.43;76.35
45129;BME280;35512;56.312;101.728;2022-12-18T04:16:15;96805.91;;;-14.39;76.02
45129;BME280;35512;56.312;101.728;2022-12-18T04:18:46;96796.31;;;-14.32;76.15
45129;BME280;35512;56.312;101.728;2022-12-18T04:21:16;96788.75;;;-14.26;76.12
45129;BME280;35512;56.312;101.728;2022-12-18T04:23:46;96790.59;;;-14.20;76.31
45129;BME280;35512;56.312;101.728;2022-12-18T04:26:17;96786.59;;;-14.16;76.34
45129;BME280;35512;56.312;101.728;2022-12-18T04:29:11;96785.81;;;-14.10;76.05
45129;BME280;35512;56.312;101.728;2022-12-18T04:31:40;96784.00;;;-14.09;76.24
45129;BME280;35512;56.312;101.728;2022-12-18T04:34:09;96783.22;;;-14.10;76.34
45129;BME280;35512;56.312;101.728;2022-12-18T04:36:44;96777.81;;;-14.15;76.15
45129;BME280;35512;56.312;101.728;2022-12-18T04:39:14;96775.59;;;-14.25;75.89
45129;BME280;35512;56.312;101.728;2022-12-18T04:41:44;96764.81;;;-14.35;75.82
45129;BME280;35512;56.312;101.728;2022-12-18T04:44:14;96765.97;;;-14.45;76.21
45129;BME280;35512;56.312;101.728;2022-12-18T04:46:43;96765.16;;;-14.45;76.08
45129;BME280;35512;56.312;101.728;2022-12-18T04:49:12;96763.75;;;-14.41;76.47
45129;BME280;35512;56.312;101.728;2022-12-18T04:51:41;96754.59;;;-14.37;76.35
45129;BME280;35512;56.312;101.728;2022-12-18T04:54:10;96749.03;;;-14.34;76.29
45129;BME280;35512;56.312;101.728;2022-12-18T04:56:39;96743.44;;;-14.37;75.90
45129;BME280;35512;56.312;101.728;2022-12-18T04:59:08;96752.81;;;-14.36;76.59
45129;BME280;35512;56.312;101.728;2022-12-18T05:01:37;96749.25;;;-14.35;76.48
45129;BME280;35512;56.312;101.728;2022-12-18T05:04:06;96747.84;;;-14.38;76.39
45129;BME280;35512;56.312;101.728;2022-12-18T05:06:35;96748.81;;;-14.39;76.33
45129;BME280;35512;56.312;101.728;2022-12-18T05:09:04;96738.41;;;-14.46;76.38
45129;BME280;35512;56.312;101.728;2022-12-18T05:11:36;96745.59;;;-14.41;76.55
45129;BME280;35512;56.312;101.728;2022-12-18T05:14:05;96739.88;;;-14.30;76.40
45129;BME280;35512;56.312;101.728;2022-12-18T05:16:34;96720.69;;;-14.35;76.51
45129;BME280;35512;56.312;101.728;2022-12-18T05:19:03;96730.09;;;-14.21;76.45
45129;BME280;35512;56.312;101.728;2022-12-18T05:21:32;96722.31;;;-14.14;76.60
45129;BME280;35512;56.312;101.728;2022-12-18T05:24:01;96725.31;;;-14.11;76.82
45129;BME280;35512;56.312;101.728;2022-12-18T05:26:29;96720.94;;;-14.10;76.86
45129;BME280;35512;56.312;101.728;2022-12-18T05:28:58;96719.53;;;-14.13;76.62
45129;BME280;35512;56.312;101.728;2022-12-18T05:31:27;96709.56;;;-14.09;76.98
45129;BME280;35512;56.312;101.728;2022-12-18T05:34:02;96705.16;;;-14.08;77.10
45129;BME280;35512;56.312;101.728;2022-12-18T05:36:32;96691.19;;;-14.07;76.75
45129;BME280;35512;56.312;101.728;2022-12-18T05:39:01;96693.78;;;-14.07;76.79
45129;BME280;35512;56.312;101.728;2022-12-18T05:41:30;96695.19;;;-14.05;76.99
45129;BME280;35512;56.312;101.728;2022-12-18T05:43:59;96688.59;;;-14.14;76.80
45129;BME280;35512;56.312;101.728;2022-12-18T05:46:28;96691.78;;;-14.19;76.78
45129;BME280;35512;56.312;101.728;2022-12-18T05:49:01;96685.97;;;-14.28;76.98
45129;BME280;35512;56.312;101.728;2022-12-18T05:51:30;96679.00;;;-14.34;76.55
45129;BME280;35512;56.312;101.728;2022-12-18T05:53:59;96675.19;;;-14.38;76.81
45129;BME280;35512;56.312;101.728;2022-12-18T05:56:28;96670.78;;;-14.37;77.16
45129;BME280;35512;56.312;101.728;2022-12-18T05:58:57;96677.59;;;-14.36;76.87
45129;BME280;35512;56.312;101.728;2022-12-18T06:01:27;96682.16;;;-14.38;77.20
45129;BME280;35512;56.312;101.728;2022-12-18T06:03:58;96678.00;;;-14.39;77.06
45129;BME280;35512;56.312;101.728;2022-12-18T06:06:27;96688.16;;;-14.38;76.92
45129;BME280;35512;56.312;101.728;2022-12-18T06:08:57;96679.78;;;-14.33;76.95
45129;BME280;35512;56.312;101.728;2022-12-18T06:11:26;96672.00;;;-14.33;76.72
45129;BME280;35512;56.312;101.728;2022-12-18T06:13:56;96679.00;;;-14.34;76.94
45129;BME280;35512;56.312;101.728;2022-12-18T06:16:28;96678.78;;;-14.32;77.08
45129;BME280;35512;56.312;101.728;2022-12-18T06:19:02;96676.19;;;-14.39;76.88
45129;BME280;35512;56.312;101.728;2022-12-18T06:21:33;96671.19;;;-14.40;77.04
45129;BME280;35512;56.312;101.728;2022-12-18T06:24:03;96671.97;;;-14.40;76.95
45129;BME280;35512;56.312;101.728;2022-12-18T06:26:32;96677.59;;;-14.36;77.09
45129;BME280;35512;56.312;101.728;2022-12-18T06:29:00;96678.59;;;-14.31;77.24
45129;BME280;35512;56.312;101.728;2022-12-18T06:31:29;96665.00;;;-14.26;76.98
45129;BME280;35512;56.312;101.728;2022-12-18T06:33:58;96672.00;;;-14.20;77.28
45129;BME280;35512;56.312;101.728;2022-12-18T06:36:28;96671.22;;;-14.20;77.06
45129;BME280;35512;56.312;101.728;2022-12-18T06:38:57;96669.22;;;-14.25;76.82
45129;BME280;35512;56.312;101.728;2022-12-18T06:41:26;96665.41;;;-14.36;76.82
45129;BME280;35512;56.312;101.728;2022-12-18T06:43:55;96661.22;;;-14.50;76.66
45129;BME280;35512;56.312;101.728;2022-12-18T06:46:27;96664.16;;;-14.60;77.06
45129;BME280;35512;56.312;101.728;2022-12-18T06:48:55;96661.78;;;-14.62;77.23
45129;BME280;35512;56.312;101.728;2022-12-18T06:51:25;96667.38;;;-14.58;77.16
45129;BME280;35512;56.312;101.728;2022-12-18T06:53:54;96662.97;;;-14.57;77.28
45129;BME280;35512;56.312;101.728;2022-12-18T06:56:23;96667.78;;;-14.61;77.34
45129;BME280;35512;56.312;101.728;2022-12-18T06:58:52;96664.59;;;-14.63;77.09
45129;BME280;35512;56.312;101.728;2022-12-18T07:01:22;96664.59;;;-14.63;77.32
45129;BME280;35512;56.312;101.728;2022-12-18T07:03:53;96677.56;;;-14.63;77.21
45129;BME280;35512;56.312;101.728;2022-12-18T07:06:24;96669.78;;;-14.63;77.36
45129;BME280;35512;56.312;101.728;2022-12-18T07:08:54;96677.13;;;-14.60;77.44
45129;BME280;35512;56.312;101.728;2022-12-18T07:11:23;96677.75;;;-14.58;77.40
45129;BME280;35512;56.312;101.728;2022-12-18T07:13:53;96674.16;;;-14.57;77.19
45129;BME280;35512;56.312;101.728;2022-12-18T07:16:22;96662.81;;;-14.63;77.18
45129;BME280;35512;56.312;101.728;2022-12-18T07:18:54;96667.78;;;-14.68;77.41
45129;BME280;35512;56.312;101.728;2022-12-18T07:21:24;96660.41;;;-14.71;76.92
45129;BME280;35512;56.312;101.728;2022-12-18T07:23:53;96666.16;;;-14.75;77.12
45129;BME280;35512;56.312;101.728;2022-12-18T07:26:23;96653.78;;;-14.80;77.33
45129;BME280;35512;56.312;101.728;2022-12-18T07:28:55;96655.38;;;-14.86;77.15
45129;BME280;35512;56.312;101.728;2022-12-18T07:31:26;96655.34;;;-14.92;76.88
45129;BME280;35512;56.312;101.728;2022-12-18T07:33:55;96654.72;;;-15.01;77.17
45129;BME280;35512;56.312;101.728;2022-12-18T07:36:24;96656.09;;;-15.05;77.38
45129;BME280;35512;56.312;101.728;2022-12-18T07:38:53;96656.09;;;-15.05;77.13
45129;BME280;35512;56.312;101.728;2022-12-18T07:41:22;96662.25;;;-15.06;77.16
45129;BME280;35512;56.312;101.728;2022-12-18T07:43:51;96666.84;;;-15.08;77.31
45129;BME280;35512;56.312;101.728;2022-12-18T07:46:20;96669.03;;;-15.12;77.11
45129;BME280;35512;56.312;101.728;2022-12-18T07:48:49;96665.03;;;-15.15;77.12
45129;BME280;35512;56.312;101.728;2022-12-18T07:51:18;96662.03;;;-15.18;77.51
45129;BME280;35512;56.312;101.728;2022-12-18T07:53:48;96664.44;;;-15.17;77.05
45129;BME280;35512;56.312;101.728;2022-12-18T07:56:20;96661.59;;;-15.22;77.16
45129;BME280;35512;56.312;101.728;2022-12-18T07:58:58;96672.38;;;-15.25;77.17
45129;BME280;35512;56.312;101.728;2022-12-18T08:01:29;96674.72;;;-15.30;77.18
45129;BME280;35512;56.312;101.728;2022-12-18T08:03:59;96671.34;;;-15.31;77.40
45129;BME280;35512;56.312;101.728;2022-12-18T08:06:28;96660.41;;;-15.26;77.38
45129;BME280;35512;56.312;101.728;2022-12-18T08:08:57;96663.16;;;-14.79;78.00
45129;BME280;35512;56.312;101.728;2022-12-18T08:11:27;96664.44;;;-14.28;78.59
45129;BME280;35512;56.312;101.728;2022-12-18T08:13:57;96654.25;;;-13.89;78.61
45129;BME280;35512;56.312;101.728;2022-12-18T08:16:26;96659.81;;;-13.72;78.24
45129;BME280;35512;56.312;101.728;2022-12-18T08:18:55;96661.00;;;-13.62;77.81
45129;BME280;35512;56.312;101.728;2022-12-18T08:21:27;96661.59;;;-13.66;77.95
45129;BME280;35512;56.312;101.728;2022-12-18T08:23:58;96664.63;;;-14.03;76.74
45129;BME280;35512;56.312;101.728;2022-12-18T08:26:29;96659.41;;;-14.43;76.61
45129;BME280;35512;56.312;101.728;2022-12-18T08:28:59;96659.00;;;-14.73;76.87
45129;BME280;35512;56.312;101.728;2022-12-18T08:31:29;96655.09;;;-15.04;76.82
45129;BME280;35512;56.312;101.728;2022-12-18T08:33:59;96638.47;;;-15.30;76.62
45129;BME280;35512;56.312;101.728;2022-12-18T08:36:28;96639.13;;;-15.56;76.58
45129;BME280;35512;56.312;101.728;2022-12-18T08:38:57;96637.41;;;-15.77;76.47
45129;BME280;35512;56.312;101.728;2022-12-18T08:41:27;96645.34;;;-15.86;76.91
45129;BME280;35512;56.312;101.728;2022-12-18T08:43:56;96636.94;;;-15.94;76.96
45129;BME280;35512;56.312;101.728;2022-12-18T08:46:43;96641.84;;;-16.06;76.99
45129;BME280;35512;56.312;101.728;2022-12-18T08:49:13;96644.56;;;-16.14;76.71
45129;BME280;35512;56.312;101.728;2022-12-18T08:51:42;96642.31;;;-16.24;76.78
45129;BME280;35512;56.312;101.728;2022-12-18T08:54:12;96630.69;;;-16.35;76.93
45129;BME280;35512;56.312;101.728;2022-12-18T08:56:42;96629.84;;;-16.42;76.70
45129;BME280;35512;56.312;101.728;2022-12-18T08:59:10;96622.81;;;-16.48;76.74
45129;BME280;35512;56.312;101.728;2022-12-18T09:01:47;96616.59;;;-16.54;76.59
45129;BME280;35512;56.312;101.728;2022-12-18T09:04:17;96625.53;;;-16.57;76.77
45129;BME280;35512;56.312;101.728;2022-12-18T09:06:46;96620.91;;;-16.61;76.77
45129;BME280;35512;56.312;101.728;2022-12-18T09:09:15;96619.69;;;-16.65;76.66
45129;BME280;35512;56.312;101.728;2022-12-18T09:11:44;96613.28;;;-16.70;76.61
45129;BME280;35512;56.312;101.728;2022-12-18T09:14:13;96611.69;;;-16.71;76.64
45129;BME280;35512;56.312;101.728;2022-12-18T09:16:42;96613.81;;;-16.74;76.67
45129;BME280;35512;56.312;101.728;2022-12-18T09:19:12;96603.44;;;-16.81;76.79
45129;BME280;35512;56.312;101.728;2022-12-18T09:21:40;96616.53;;;-16.83;76.66
45129;BME280;35512;56.312;101.728;2022-12-18T09:24:15;96611.94;;;-16.87;76.58
45129;BME280;35512;56.312;101.728;2022-12-18T09:26:44;96619.09;;;-16.89;76.49
45129;BME280;35512;56.312;101.728;2022-12-18T09:29:15;96611.69;;;-16.92;76.63
45129;BME280;35512;56.312;101.728;2022-12-18T09:31:46;96619.84;;;-16.95;76.56
45129;BME280;35512;56.312;101.728;2022-12-18T09:34:15;96612.59;;;-17.00;76.91
45129;BME280;35512;56.312;101.728;2022-12-18T09:36:45;96604.25;;;-17.02;76.24
45129;BME280;35512;56.312;101.728;2022-12-18T09:39:14;96607.38;;;-17.07;76.48
45129;BME280;35512;56.312;101.728;2022-12-18T09:41:52;96612.53;;;-17.07;76.58
45129;BME280;35512;56.312;101.728;2022-12-18T09:49:46;96623.50;;;-17.05;76.35
45129;BME280;35512;56.312;101.728;2022-12-18T09:52:48;96616.19;;;-17.01;76.59
45129;BME280;35512;56.312;101.728;2022-12-18T09:55:41;96607.09;;;-16.97;76.55
45129;BME280;35512;56.312;101.728;2022-12-18T10:01:18;96616.81;;;-16.99;76.47
45129;BME280;35512;56.312;101.728;2022-12-18T10:03:50;96616.53;;;-17.04;76.29
45129;BME280;35512;56.312;101.728;2022-12-18T10:06:26;96615.75;;;-17.05;76.48
45129;BME280;35512;56.312;101.728;2022-12-18T10:20:00;96614.22;;;-16.99;76.46
45129;BME280;35512;56.312;101.728;2022-12-18T10:23:04;96615.00;;;-16.98;76.17
45129;BME280;35512;56.312;101.728;2022-12-18T10:25:59;96612.97;;;-17.03;76.28
45129;BME280;35512;56.312;101.728;2022-12-18T10:28:32;96598.03;;;-17.08;75.94
45129;BME280;35512;56.312;101.728;2022-12-18T10:31:02;96589.59;;;-17.16;76.52
45129;BME280;35512;56.312;101.728;2022-12-18T10:33:32;96596.00;;;-17.12;76.36
45129;BME280;35512;56.312;101.728;2022-12-18T10:36:02;96601.97;;;-17.12;76.53
45129;BME280;35512;56.312;101.728;2022-12-18T10:38:32;96598.75;;;-17.14;76.35
45129;BME280;35512;56.312;101.728;2022-12-18T10:41:08;96597.34;;;-17.16;76.67
45129;BME280;35512;56.312;101.728;2022-12-18T10:44:20;96595.94;;;-17.19;75.96
45129;BME280;35512;56.312;101.728;2022-12-18T10:46:53;96597.09;;;-17.22;76.71
45129;BME280;35512;56.312;101.728;2022-12-18T10:49:29;96595.50;;;-17.23;76.21
45129;BME280;35512;56.312;101.728;2022-12-18T10:54:56;96594.41;;;-17.13;76.46
45129;BME280;35512;56.312;101.728;2022-12-18T10:57:40;96582.75;;;-17.09;76.65
45129;BME280;35512;56.312;101.728;2022-12-18T11:00:28;96578.81;;;-17.05;76.37
45129;BME280;35512;56.312;101.728;2022-12-18T11:02:57;96586.44;;;-16.97;76.63
45129;BME280;35512;56.312;101.728;2022-12-18T11:07:59;96570.47;;;-16.79;76.64
45129;BME280;35512;56.312;101.728;2022-12-18T11:10:31;96580.03;;;-16.73;76.71
45129;BME280;35512;56.312;101.728;2022-12-18T11:15:47;96568.47;;;-16.55;76.59
45129;BME280;35512;56.312;101.728;2022-12-18T11:21:16;96579.09;;;-16.43;76.49
45129;BME280;35512;56.312;101.728;2022-12-18T11:23:52;96569.78;;;-16.38;76.50
45129;BME280;35512;56.312;101.728;2022-12-18T11:26:34;96564.44;;;-16.36;76.65
45129;BME280;35512;56.312;101.728;2022-12-18T11:29:16;96568.66;;;-16.28;76.83
45129;BME280;35512;56.312;101.728;2022-12-18T11:31:46;96565.69;;;-16.25;76.79
45129;BME280;35512;56.312;101.728;2022-12-18T11:34:35;96561.34;;;-16.25;76.53
45129;BME280;35512;56.312;101.728;2022-12-18T11:37:05;96560.34;;;-16.24;76.85
45129;BME280;35512;56.312;101.728;2022-12-18T11:39:39;96554.97;;;-16.22;76.36
45129;BME280;35512;56.312;101.728;2022-12-18T11:50:51;96529.53;;;-16.19;76.66
45129;BME280;35512;56.312;101.728;2022-12-18T11:53:21;96516.84;;;-16.13;76.58
45129;BME280;35512;56.312;101.728;2022-12-18T11:56:11;96508.50;;;-16.09;76.59
45129;BME280;35512;56.312;101.728;2022-12-18T11:58:51;96508.69;;;-16.10;76.45
45129;BME280;35512;56.312;101.728;2022-12-18T12:10:42;96495.75;;;-16.10;76.48
45129;BME280;35512;56.312;101.728;2022-12-18T12:16:43;96491.59;;;-16.05;76.79
45129;BME280;35512;56.312;101.728;2022-12-18T12:30:18;96465.38;;;-15.95;77.20
45129;BME280;35512;56.312;101.728;2022-12-18T12:35:44;96469.34;;;-15.92;77.02
45129;BME280;35512;56.312;101.728;2022-12-18T12:38:37;96451.03;;;-15.91;76.96
45129;BME280;35512;56.312;101.728;2022-12-18T12:41:08;96455.44;;;-15.91;76.97
45129;BME280;35512;56.312;101.728;2022-12-18T12:44:01;96449.88;;;-15.88;76.94
45129;BME280;35512;56.312;101.728;2022-12-18T12:46:35;96458.66;;;-15.83;76.99
45129;BME280;35512;56.312;101.728;2022-12-18T12:49:16;96464.22;;;-15.79;77.03
45129;BME280;35512;56.312;101.728;2022-12-18T12:51:53;96457.47;;;-15.80;77.12
45129;BME280;35512;56.312;101.728;2022-12-18T12:54:26;96457.84;;;-15.76;77.54
45129;BME280;35512;56.312;101.728;2022-12-18T12:59:57;96451.69;;;-15.69;77.35
45129;BME280;35512;56.312;101.728;2022-12-18T13:05:48;96455.50;;;-15.58;77.31
45129;BME280;35512;56.312;101.728;2022-12-18T13:08:27;96452.75;;;-15.50;77.39
45129;BME280;35512;56.312;101.728;2022-12-18T13:11:01;96447.75;;;-15.44;77.64
45129;BME280;35512;56.312;101.728;2022-12-18T13:13:55;96444.78;;;-15.41;77.66
45129;BME280;35512;56.312;101.728;2022-12-18T13:16:25;96443.78;;;-15.40;77.50
45129;BME280;35512;56.312;101.728;2022-12-18T13:18:58;96441.19;;;-15.34;77.62
45129;BME280;35512;56.312;101.728;2022-12-18T13:21:29;96441.03;;;-15.32;77.29
45129;BME280;35512;56.312;101.728;2022-12-18T13:24:27;96438.03;;;-15.29;77.67
45129;BME280;35512;56.312;101.728;2022-12-18T13:26:56;96433.84;;;-15.30;77.31
45129;BME280;35512;56.312;101.728;2022-12-18T13:29:45;96438.81;;;-15.28;77.40
45129;BME280;35512;56.312;101.728;2022-12-18T13:32:23;96435.63;;;-15.31;77.42
45129;BME280;35512;56.312;101.728;2022-12-18T13:35:37;96432.03;;;-15.30;77.38
45129;BME280;35512;56.312;101.728;2022-12-18T13:38:22;96428.47;;;-15.28;77.69
45129;BME280;35512;56.312;101.728;2022-12-18T13:40:55;96433.06;;;-15.24;77.55
45129;BME280;35512;56.312;101.728;2022-12-18T13:46:30;96428.06;;;-15.19;77.73
45129;BME280;35512;56.312;101.728;2022-12-18T13:49:23;96415.50;;;-15.15;77.60
45129;BME280;35512;56.312;101.728;2022-12-18T13:51:55;96417.69;;;-15.12;77.70
45129;BME280;35512;56.312;101.728;2022-12-18T13:56:56;96408.31;;;-15.06;77.54
45129;BME280;35512;56.312;101.728;2022-12-18T13:59:35;96403.97;;;-14.99;77.80
45129;BME280;35512;56.312;101.728;2022-12-18T14:02:17;96412.09;;;-14.96;77.68
45129;BME280;35512;56.312;101.728;2022-12-18T14:04:50;96408.94;;;-14.91;78.18
45129;BME280;35512;56.312;101.728;2022-12-18T14:07:24;96405.34;;;-14.90;77.69
45129;BME280;35512;56.312;101.728;2022-12-18T14:10:01;96403.34;;;-14.88;77.91
45129;BME280;35512;56.312;101.728;2022-12-18T14:12:51;96402.94;;;-14.85;77.88
45129;BME280;35512;56.312;101.728;2022-12-18T14:15:33;96389.19;;;-14.85;78.13
45129;BME280;35512;56.312;101.728;2022-12-18T14:18:22;96391.38;;;-14.82;78.20
45129;BME280;35512;56.312;101.728;2022-12-18T14:20:57;96379.22;;;-14.82;78.11
45129;BME280;35512;56.312;101.728;2022-12-18T14:23:40;96386.38;;;-14.77;77.99
45129;BME280;35512;56.312;101.728;2022-12-18T14:26:21;96387.97;;;-14.69;78.45
45129;BME280;35512;56.312;101.728;2022-12-18T14:28:51;96386.13;;;-14.62;77.89
45129;BME280;35512;56.312;101.728;2022-12-18T14:31:24;96390.88;;;-14.59;77.93
45129;BME280;35512;56.312;101.728;2022-12-18T14:33:54;96381.69;;;-14.55;78.28
45129;BME280;35512;56.312;101.728;2022-12-18T14:36:26;96381.09;;;-14.50;78.24
45129;BME280;35512;56.312;101.728;2022-12-18T14:38:58;96380.06;;;-14.42;78.15
45129;BME280;35512;56.312;101.728;2022-12-18T14:41:27;96386.44;;;-14.38;78.44
45129;BME280;35512;56.312;101.728;2022-12-18T14:44:05;96383.25;;;-14.34;78.40
45129;BME280;35512;56.312;101.728;2022-12-18T14:46:36;96378.44;;;-14.30;78.37
45129;BME280;35512;56.312;101.728;2022-12-18T14:51:56;96381.78;;;-14.16;78.23
45129;BME280;35512;56.312;101.728;2022-12-18T14:54:27;96381.72;;;-14.09;78.67
45129;BME280;35512;56.312;101.728;2022-12-18T14:57:01;96382.13;;;-14.06;78.28
45129;BME280;35512;56.312;101.728;2022-12-18T14:59:31;96375.16;;;-14.05;78.20
45129;BME280;35512;56.312;101.728;2022-12-18T15:02:25;96366.94;;;-14.02;78.17